createdAt,value
2022-07-31T00:00:58.229Z,17.76
2022-07-31T00:01:58.214Z,17.81
2022-07-31T00:02:58.172Z,17.81
2022-07-31T00:03:58.211Z,17.77
2022-07-31T00:04:58.032Z,17.74
2022-07-31T00:05:57.947Z,17.87
2022-07-31T00:06:57.951Z,17.86
2022-07-31T00:07:57.834Z,17.74
2022-07-31T00:08:57.763Z,17.87
2022-07-31T00:09:57.752Z,17.86
2022-07-31T00:10:57.652Z,17.91
2022-07-31T00:11:57.648Z,17.80
2022-07-31T00:12:57.544Z,17.80
2022-07-31T00:13:58.752Z,17.81
2022-07-31T00:14:57.391Z,17.80
2022-07-31T00:15:57.385Z,17.86
2022-07-31T00:16:57.282Z,17.84
2022-07-31T00:17:57.295Z,17.86
2022-07-31T00:18:57.186Z,17.81
2022-07-31T00:19:57.114Z,17.70
2022-07-31T00:20:57.094Z,17.79
2022-07-31T00:21:57.009Z,17.71
2022-07-31T00:22:56.928Z,17.74
2022-07-31T00:23:56.910Z,17.79
2022-07-31T00:24:56.819Z,17.77
2022-07-31T00:25:56.745Z,17.71
2022-07-31T00:26:56.724Z,17.71
2022-07-31T00:27:56.625Z,17.63
2022-07-31T00:28:56.632Z,17.62
2022-07-31T00:29:56.567Z,17.46
2022-07-31T00:30:56.460Z,17.47
2022-07-31T00:31:56.461Z,17.43
2022-07-31T00:32:56.444Z,17.39
2022-07-31T00:33:56.266Z,17.43
2022-07-31T00:34:56.264Z,17.38
2022-07-31T00:35:56.162Z,17.38
2022-07-31T00:36:56.102Z,17.42
2022-07-31T00:38:24.766Z,17.32
2022-07-31T00:38:55.946Z,17.35
2022-07-31T00:39:55.908Z,17.30
2022-07-31T00:40:55.894Z,17.32
2022-07-31T00:41:55.808Z,17.27
2022-07-31T00:42:55.721Z,17.36
2022-07-31T00:43:55.705Z,17.25
2022-07-31T00:44:55.621Z,17.38
2022-07-31T00:45:58.913Z,17.35
2022-07-31T00:46:55.525Z,17.40
2022-07-31T00:47:55.950Z,17.39
2022-07-31T00:48:55.407Z,17.36
2022-07-31T00:49:55.341Z,17.35
2022-07-31T00:50:55.280Z,17.28
2022-07-31T00:51:55.168Z,17.32
2022-07-31T00:52:55.143Z,17.27
2022-07-31T00:53:55.074Z,17.21
2022-07-31T00:54:55.061Z,17.33
2022-07-31T00:55:54.964Z,17.24
2022-07-31T00:56:54.957Z,17.24
2022-07-31T00:57:54.874Z,17.22
2022-07-31T00:58:54.776Z,17.35
2022-07-31T00:59:54.703Z,17.38
2022-07-31T01:00:54.764Z,17.46
2022-07-31T01:01:54.600Z,17.55
2022-07-31T01:02:54.520Z,17.53
2022-07-31T01:03:54.507Z,17.53
2022-07-31T01:04:54.429Z,17.54
2022-07-31T01:05:54.365Z,17.54
2022-07-31T01:06:54.285Z,17.54
2022-07-31T01:07:54.190Z,17.49
2022-07-31T01:08:54.117Z,17.57
2022-07-31T01:09:54.054Z,17.47
2022-07-31T01:10:53.994Z,17.43
2022-07-31T01:11:53.940Z,17.33
2022-07-31T01:12:54.426Z,17.45
2022-07-31T01:13:53.811Z,17.35
2022-07-31T01:14:53.755Z,17.30
2022-07-31T01:15:53.689Z,17.22
2022-07-31T01:16:53.639Z,17.33
2022-07-31T01:17:53.573Z,17.38
2022-07-31T01:18:53.515Z,17.24
2022-07-31T01:19:53.450Z,17.24
2022-07-31T01:20:53.388Z,17.35
2022-07-31T01:21:53.334Z,17.25
2022-07-31T01:22:53.271Z,17.17
2022-07-31T01:23:55.269Z,17.15
2022-07-31T01:24:53.164Z,17.17
2022-07-31T01:25:53.095Z,17.25
2022-07-31T01:26:53.029Z,17.20
2022-07-31T01:27:52.967Z,17.14
2022-07-31T01:28:52.912Z,17.17
2022-07-31T01:29:52.851Z,17.14
2022-07-31T01:31:00.422Z,17.10
2022-07-31T01:31:52.747Z,17.14
2022-07-31T01:32:52.670Z,17.20
2022-07-31T01:33:52.607Z,17.21
2022-07-31T01:34:52.550Z,17.22
2022-07-31T01:35:52.493Z,17.21
2022-07-31T01:36:52.430Z,17.06
2022-07-31T01:37:52.367Z,17.09
2022-07-31T01:38:52.311Z,17.17
2022-07-31T01:39:52.281Z,17.10
2022-07-31T01:40:52.195Z,17.09
2022-07-31T01:41:52.124Z,17.14
2022-07-31T01:42:52.077Z,17.00
2022-07-31T01:43:52.006Z,17.02
2022-07-31T01:44:51.972Z,17.03
2022-07-31T01:45:51.890Z,16.99
2022-07-31T01:46:51.823Z,17.02
2022-07-31T01:47:51.972Z,17.00
2022-07-31T01:48:51.748Z,17.00
2022-07-31T01:49:51.650Z,17.02
2022-07-31T01:50:51.587Z,16.91
2022-07-31T01:52:02.922Z,16.91
2022-07-31T01:52:51.472Z,16.99
2022-07-31T01:53:51.404Z,16.95
2022-07-31T01:54:51.341Z,16.95
2022-07-31T01:56:02.823Z,16.91
2022-07-31T01:56:51.219Z,17.00
2022-07-31T01:57:51.169Z,16.98
2022-07-31T01:58:51.104Z,17.03
2022-07-31T01:59:51.041Z,17.02
2022-07-31T02:00:51.040Z,17.00
2022-07-31T02:01:51.512Z,16.99
2022-07-31T02:02:50.856Z,16.99
2022-07-31T02:03:51.460Z,16.99
2022-07-31T02:04:50.737Z,16.96
2022-07-31T02:05:50.681Z,16.80
2022-07-31T02:06:50.613Z,16.84
2022-07-31T02:07:50.558Z,16.73
2022-07-31T02:08:50.499Z,16.70
2022-07-31T02:09:58.258Z,16.54
2022-07-31T02:10:50.375Z,16.55
2022-07-31T02:12:03.914Z,16.54
2022-07-31T02:12:50.257Z,16.52
2022-07-31T02:13:50.193Z,16.55
2022-07-31T02:14:50.135Z,16.44
2022-07-31T02:15:50.079Z,16.59
2022-07-31T02:16:50.014Z,16.54
2022-07-31T02:17:49.957Z,16.55
2022-07-31T02:18:49.903Z,16.63
2022-07-31T02:19:59.692Z,16.59
2022-07-31T02:20:49.787Z,16.66
2022-07-31T02:21:49.715Z,16.59
2022-07-31T02:22:49.658Z,16.72
2022-07-31T02:23:49.604Z,16.70
2022-07-31T02:24:49.534Z,16.62
2022-07-31T02:25:49.480Z,16.51
2022-07-31T02:26:49.416Z,16.48
2022-07-31T02:27:53.896Z,16.45
2022-07-31T02:28:49.311Z,16.42
2022-07-31T02:29:49.235Z,16.36
2022-07-31T02:30:49.172Z,16.29
2022-07-31T02:32:01.980Z,16.47
2022-07-31T02:32:49.044Z,16.45
2022-07-31T02:33:48.985Z,16.41
2022-07-31T02:34:48.925Z,16.33
2022-07-31T02:35:48.866Z,16.32
2022-07-31T02:36:48.799Z,16.26
2022-07-31T02:37:48.784Z,16.33
2022-07-31T02:38:48.687Z,16.26
2022-07-31T02:39:48.627Z,16.23
2022-07-31T02:40:48.569Z,16.27
2022-07-31T02:41:48.499Z,16.13
2022-07-31T02:42:48.440Z,16.18
2022-07-31T02:43:48.393Z,16.22
2022-07-31T02:44:48.339Z,16.14
2022-07-31T02:45:48.271Z,16.18
2022-07-31T02:46:48.210Z,16.18
2022-07-31T02:47:48.151Z,16.18
2022-07-31T02:48:48.148Z,16.27
2022-07-31T02:49:48.015Z,16.22
2022-07-31T02:50:47.963Z,16.14
2022-07-31T02:51:47.902Z,16.13
2022-07-31T02:52:47.904Z,16.07
2022-07-31T02:53:47.855Z,16.01
2022-07-31T02:54:47.736Z,16.01
2022-07-31T02:55:47.708Z,16.04
2022-07-31T02:56:47.632Z,16.06
2022-07-31T02:57:47.541Z,16.17
2022-07-31T02:58:47.486Z,16.27
2022-07-31T02:59:47.420Z,16.40
2022-07-31T03:00:47.415Z,16.51
2022-07-31T03:01:47.299Z,16.55
2022-07-31T03:02:47.236Z,16.54
2022-07-31T03:03:47.205Z,16.51
2022-07-31T03:04:47.128Z,16.42
2022-07-31T03:05:47.053Z,16.45
2022-07-31T03:06:46.999Z,16.42
2022-07-31T03:07:46.937Z,16.29
2022-07-31T03:08:46.863Z,16.18
2022-07-31T03:09:46.805Z,16.22
2022-07-31T03:10:46.744Z,16.16
2022-07-31T03:11:46.682Z,16.22
2022-07-31T03:12:46.627Z,16.04
2022-07-31T03:13:46.565Z,16.04
2022-07-31T03:14:46.498Z,16.10
2022-07-31T03:15:50.992Z,16.03
2022-07-31T03:16:46.384Z,16.03
2022-07-31T03:17:46.317Z,15.89
2022-07-31T03:18:46.267Z,15.99
2022-07-31T03:19:46.205Z,15.96
2022-07-31T03:20:46.141Z,15.98
2022-07-31T03:21:46.078Z,15.84
2022-07-31T03:22:46.027Z,15.88
2022-07-31T03:23:45.963Z,15.91
2022-07-31T03:24:45.893Z,15.91
2022-07-31T03:25:45.858Z,15.92
2022-07-31T03:26:45.771Z,15.91
2022-07-31T03:27:45.720Z,15.91
2022-07-31T03:28:45.661Z,15.88
2022-07-31T03:29:45.588Z,15.89
2022-07-31T03:30:45.529Z,15.92
2022-07-31T03:31:45.480Z,15.92
2022-07-31T03:32:45.413Z,15.84
2022-07-31T03:33:45.349Z,15.92
2022-07-31T03:34:45.318Z,15.93
2022-07-31T03:35:45.238Z,15.92
2022-07-31T03:36:45.185Z,15.89
2022-07-31T03:37:45.105Z,15.89
2022-07-31T03:38:50.116Z,15.89
2022-07-31T03:39:44.987Z,16.01
2022-07-31T03:40:44.930Z,15.93
2022-07-31T03:41:44.871Z,16.03
2022-07-31T03:42:44.802Z,16.07
2022-07-31T03:43:48.049Z,15.96
2022-07-31T03:44:44.677Z,15.95
2022-07-31T03:45:44.632Z,15.99
2022-07-31T03:46:44.561Z,16.01
2022-07-31T03:47:44.494Z,16.03
2022-07-31T03:48:44.664Z,15.99
2022-07-31T03:49:44.379Z,16.04
2022-07-31T03:50:44.313Z,16.03
2022-07-31T03:51:44.253Z,16.03
2022-07-31T03:52:44.237Z,15.99
2022-07-31T03:53:44.133Z,16.01
2022-07-31T03:54:44.076Z,15.98
2022-07-31T03:55:44.008Z,16.04
2022-07-31T03:56:44.991Z,16.08
2022-07-31T03:57:43.887Z,16.04
2022-07-31T03:58:48.008Z,16.10
2022-07-31T03:59:48.642Z,16.18
2022-07-31T04:00:43.703Z,16.26
2022-07-31T04:01:58.233Z,16.26
2022-07-31T04:02:43.644Z,16.30
2022-07-31T04:03:43.541Z,16.30
2022-07-31T04:04:43.458Z,16.36
2022-07-31T04:05:43.400Z,16.42
2022-07-31T04:06:43.364Z,16.42
2022-07-31T04:07:43.317Z,16.42
2022-07-31T04:08:43.250Z,16.45
2022-07-31T04:09:43.158Z,16.44
2022-07-31T04:10:43.170Z,16.54
2022-07-31T04:11:43.039Z,16.45
2022-07-31T04:12:42.970Z,16.59
2022-07-31T04:13:42.917Z,16.55
2022-07-31T04:14:42.851Z,16.66
2022-07-31T04:15:42.830Z,16.65
2022-07-31T04:16:42.727Z,16.70
2022-07-31T04:17:42.676Z,16.75
2022-07-31T04:18:42.609Z,16.72
2022-07-31T04:19:42.547Z,16.69
2022-07-31T04:20:42.492Z,16.63
2022-07-31T04:21:42.423Z,16.67
2022-07-31T04:22:42.369Z,16.72
2022-07-31T04:23:42.343Z,16.73
2022-07-31T04:24:42.252Z,16.80
2022-07-31T04:25:42.198Z,16.77
2022-07-31T04:26:42.131Z,16.78
2022-07-31T04:27:48.284Z,16.78
2022-07-31T04:28:42.023Z,16.75
2022-07-31T04:29:41.950Z,16.87
2022-07-31T04:30:41.884Z,16.87
2022-07-31T04:31:41.817Z,16.92
2022-07-31T04:32:41.764Z,17.02
2022-07-31T04:33:46.456Z,17.03
2022-07-31T04:34:41.687Z,17.02
2022-07-31T04:35:41.574Z,17.00
2022-07-31T04:36:41.532Z,17.12
2022-07-31T04:37:48.134Z,17.09
2022-07-31T04:38:41.389Z,17.09
2022-07-31T04:39:41.339Z,17.07
2022-07-31T04:40:41.281Z,17.09
2022-07-31T04:41:41.230Z,17.07
2022-07-31T04:42:41.157Z,17.14
2022-07-31T04:43:41.091Z,17.24
2022-07-31T04:44:41.067Z,17.12
2022-07-31T04:45:40.966Z,17.32
2022-07-31T04:46:40.906Z,17.33
2022-07-31T04:47:40.854Z,17.36
2022-07-31T04:48:41.352Z,17.24
2022-07-31T04:49:40.737Z,17.28
2022-07-31T04:50:40.676Z,17.35
2022-07-31T04:51:40.605Z,17.36
2022-07-31T04:52:40.544Z,17.42
2022-07-31T04:53:40.482Z,17.38
2022-07-31T04:54:40.421Z,17.42
2022-07-31T04:55:40.376Z,17.57
2022-07-31T04:56:40.316Z,17.53
2022-07-31T04:57:40.248Z,17.62
2022-07-31T04:58:40.181Z,17.68
2022-07-31T04:59:59.632Z,17.79
2022-07-31T05:00:40.058Z,17.73
2022-07-31T05:01:40.051Z,17.79
2022-07-31T05:02:39.967Z,17.86
2022-07-31T05:03:39.888Z,17.84
2022-07-31T05:04:39.822Z,17.91
2022-07-31T05:05:39.793Z,18.09
2022-07-31T05:06:39.698Z,18.05
2022-07-31T05:07:39.648Z,18.10
2022-07-31T05:08:39.576Z,18.09
2022-07-31T05:09:39.522Z,18.19
2022-07-31T05:10:39.472Z,18.28
2022-07-31T05:11:39.405Z,18.42
2022-07-31T05:12:39.335Z,18.47
2022-07-31T05:13:39.292Z,18.56
2022-07-31T05:14:39.229Z,18.66
2022-07-31T05:15:39.178Z,18.74
2022-07-31T05:16:39.095Z,18.76
2022-07-31T05:17:39.033Z,18.89
2022-07-31T05:18:38.973Z,18.99
2022-07-31T05:19:38.915Z,19.06
2022-07-31T05:20:38.856Z,19.23
2022-07-31T05:21:52.881Z,19.34
2022-07-31T05:22:38.763Z,19.49
2022-07-31T05:23:38.684Z,19.90
2022-07-31T05:24:38.630Z,20.73
2022-07-31T05:25:38.552Z,21.64
2022-07-31T05:26:38.532Z,22.56
2022-07-31T05:27:39.146Z,23.52
2022-07-31T05:28:38.372Z,24.18
2022-07-31T05:29:38.318Z,24.51
2022-07-31T05:30:38.261Z,24.70
2022-07-31T05:31:38.202Z,25.49
2022-07-31T05:32:38.159Z,25.93
2022-07-31T05:33:38.094Z,26.31
2022-07-31T05:34:38.020Z,26.61
2022-07-31T05:35:37.970Z,26.83
2022-07-31T05:36:37.903Z,27.23
2022-07-31T05:37:37.851Z,27.68
2022-07-31T05:38:37.790Z,27.77
2022-07-31T05:39:37.736Z,28.03
2022-07-31T05:40:37.672Z,28.18
2022-07-31T05:41:37.630Z,28.36
2022-07-31T05:42:37.558Z,28.54
2022-07-31T05:43:37.502Z,28.87
2022-07-31T05:44:37.450Z,29.03
2022-07-31T05:45:37.384Z,29.27
2022-07-31T05:46:37.333Z,29.27
2022-07-31T05:47:39.725Z,29.27
2022-07-31T05:48:37.205Z,29.54
2022-07-31T05:49:37.282Z,29.37
2022-07-31T05:50:37.089Z,29.81
2022-07-31T05:51:37.036Z,30.08
2022-07-31T05:52:36.979Z,29.71
2022-07-31T05:53:36.926Z,29.07
2022-07-31T05:54:36.863Z,28.65
2022-07-31T05:55:36.823Z,28.43
2022-07-31T05:56:36.747Z,28.62
2022-07-31T05:57:36.686Z,28.62
2022-07-31T05:58:36.636Z,28.89
2022-07-31T05:59:36.575Z,28.73
2022-07-31T06:00:36.523Z,28.91
2022-07-31T06:01:36.576Z,29.03
2022-07-31T06:02:36.442Z,29.41
2022-07-31T06:03:51.587Z,29.66
2022-07-31T06:04:36.286Z,29.73
2022-07-31T06:05:36.230Z,29.99
2022-07-31T06:06:36.187Z,30.26
2022-07-31T06:07:36.122Z,30.56
2022-07-31T06:08:36.059Z,30.38
2022-07-31T06:09:36.001Z,30.10
2022-07-31T06:10:35.954Z,30.34
2022-07-31T06:11:35.908Z,30.57
2022-07-31T06:12:35.836Z,30.78
2022-07-31T06:13:35.784Z,30.70
2022-07-31T06:14:35.741Z,30.90
2022-07-31T06:15:36.711Z,30.67
2022-07-31T06:16:35.609Z,30.97
2022-07-31T06:17:44.167Z,31.28
2022-07-31T06:18:35.497Z,31.35
2022-07-31T06:19:35.445Z,31.19
2022-07-31T06:20:35.380Z,30.82
2022-07-31T06:21:35.350Z,30.96
2022-07-31T06:22:35.278Z,31.27
2022-07-31T06:23:35.217Z,31.37
2022-07-31T06:24:35.170Z,31.75
2022-07-31T06:25:39.130Z,32.10
2022-07-31T06:26:35.051Z,32.39
2022-07-31T06:27:35.298Z,32.32
2022-07-31T06:28:47.954Z,32.19
2022-07-31T06:29:41.866Z,32.09
2022-07-31T06:30:34.843Z,31.97
2022-07-31T06:31:34.773Z,31.95
2022-07-31T06:32:34.717Z,32.12
2022-07-31T06:33:37.525Z,32.29
2022-07-31T06:34:34.619Z,31.53
2022-07-31T06:35:34.556Z,31.74
2022-07-31T06:36:34.487Z,31.67
2022-07-31T06:37:34.433Z,31.75
2022-07-31T06:38:34.383Z,31.95
2022-07-31T06:39:55.453Z,32.36
2022-07-31T06:40:34.374Z,32.78
2022-07-31T06:41:34.368Z,33.00
2022-07-31T06:42:34.203Z,33.09
2022-07-31T06:43:34.186Z,33.20
2022-07-31T06:44:34.113Z,33.45
2022-07-31T06:45:51.295Z,33.53
2022-07-31T06:46:34.018Z,33.56
2022-07-31T06:47:33.927Z,33.53
2022-07-31T06:48:33.918Z,33.56
2022-07-31T06:49:33.921Z,33.60
2022-07-31T06:50:33.749Z,33.28
2022-07-31T06:51:33.731Z,32.99
2022-07-31T06:52:33.719Z,33.17
2022-07-31T06:53:33.665Z,33.41
2022-07-31T06:54:33.549Z,33.20
2022-07-31T06:55:33.467Z,33.49
2022-07-31T06:56:33.452Z,33.66
2022-07-31T06:57:33.379Z,33.82
2022-07-31T06:58:33.367Z,33.78
2022-07-31T06:59:40.604Z,32.90
2022-07-31T07:00:33.267Z,32.88
2022-07-31T07:01:33.272Z,32.88
2022-07-31T07:02:33.170Z,33.15
2022-07-31T07:03:33.101Z,33.37
2022-07-31T07:05:06.326Z,33.82
2022-07-31T07:05:33.021Z,34.00
2022-07-31T07:06:32.900Z,34.18
2022-07-31T07:07:32.827Z,34.12
2022-07-31T07:08:32.830Z,34.40
2022-07-31T07:09:32.806Z,34.46
2022-07-31T07:10:32.725Z,33.49
2022-07-31T07:11:32.623Z,33.45
2022-07-31T07:12:32.553Z,33.60
2022-07-31T07:13:45.817Z,33.86
2022-07-31T07:14:32.470Z,34.21
2022-07-31T07:15:32.460Z,34.06
2022-07-31T07:16:32.351Z,34.30
2022-07-31T07:17:32.279Z,33.24
2022-07-31T07:18:32.274Z,33.44
2022-07-31T07:19:32.192Z,33.65
2022-07-31T07:20:32.172Z,33.79
2022-07-31T07:21:32.079Z,33.92
2022-07-31T07:22:32.342Z,34.11
2022-07-31T07:23:31.985Z,34.27
2022-07-31T07:24:31.919Z,34.40
2022-07-31T07:25:31.916Z,34.26
2022-07-31T07:26:31.805Z,34.45
2022-07-31T07:27:31.828Z,34.72
2022-07-31T07:28:31.800Z,34.78
2022-07-31T07:29:31.640Z,34.80
2022-07-31T07:30:31.628Z,34.42
2022-07-31T07:31:31.557Z,34.23
2022-07-31T07:32:31.465Z,34.56
2022-07-31T07:33:40.604Z,34.71
2022-07-31T07:34:31.383Z,34.81
2022-07-31T07:35:34.109Z,34.88
2022-07-31T07:36:31.232Z,34.83
2022-07-31T07:37:31.175Z,35.05
2022-07-31T07:38:31.157Z,35.28
2022-07-31T07:39:31.059Z,35.49
2022-07-31T07:40:31.046Z,35.58
2022-07-31T07:41:30.964Z,35.58
2022-07-31T07:42:30.920Z,35.80
2022-07-31T07:43:30.850Z,35.78
2022-07-31T07:44:30.795Z,35.80
2022-07-31T07:45:30.756Z,35.62
2022-07-31T07:46:30.705Z,35.74
2022-07-31T07:47:53.912Z,35.78
2022-07-31T07:48:30.588Z,35.58
2022-07-31T07:49:30.581Z,35.58
2022-07-31T07:50:30.486Z,35.13
2022-07-31T07:51:30.440Z,34.91
2022-07-31T07:52:30.373Z,34.86
2022-07-31T07:53:30.349Z,35.15
2022-07-31T07:54:30.261Z,35.34
2022-07-31T07:55:37.414Z,35.32
2022-07-31T07:56:30.167Z,35.28
2022-07-31T07:57:30.116Z,35.44
2022-07-31T07:58:30.057Z,35.74
2022-07-31T07:59:30.002Z,35.69
2022-07-31T08:00:29.944Z,35.89
2022-07-31T08:01:29.986Z,36.12
2022-07-31T08:02:29.849Z,35.91
2022-07-31T08:03:48.492Z,35.24
2022-07-31T08:04:29.741Z,35.05
2022-07-31T08:05:29.696Z,34.83
2022-07-31T08:06:29.658Z,34.67
2022-07-31T08:07:42.659Z,34.83
2022-07-31T08:08:29.525Z,34.46
2022-07-31T08:09:29.473Z,34.99
2022-07-31T08:10:29.436Z,34.95
2022-07-31T08:11:29.368Z,35.42
2022-07-31T08:12:29.315Z,35.31
2022-07-31T08:13:29.266Z,35.73
2022-07-31T08:14:29.212Z,35.83
2022-07-31T08:15:29.160Z,36.23
2022-07-31T08:16:29.114Z,36.30
2022-07-31T08:17:29.055Z,36.44
2022-07-31T08:18:29.011Z,36.64
2022-07-31T08:19:28.956Z,36.94
2022-07-31T08:20:28.939Z,36.91
2022-07-31T08:21:28.848Z,36.72
2022-07-31T08:22:28.798Z,36.59
2022-07-31T08:23:28.768Z,36.62
2022-07-31T08:24:28.687Z,36.68
2022-07-31T08:25:31.171Z,36.89
2022-07-31T08:26:28.585Z,36.82
2022-07-31T08:27:39.626Z,35.93
2022-07-31T08:28:28.489Z,36.11
2022-07-31T08:29:28.963Z,35.34
2022-07-31T08:30:31.125Z,35.44
2022-07-31T08:31:28.331Z,35.40
2022-07-31T08:32:28.290Z,35.34
2022-07-31T08:33:28.228Z,35.36
2022-07-31T08:34:30.965Z,35.29
2022-07-31T08:35:28.129Z,35.43
2022-07-31T08:36:28.068Z,35.24
2022-07-31T08:37:51.298Z,35.36
2022-07-31T08:38:27.968Z,35.00
2022-07-31T08:39:27.907Z,35.12
2022-07-31T08:40:27.859Z,35.15
2022-07-31T08:41:27.804Z,35.25
2022-07-31T08:42:27.756Z,35.65
2022-07-31T08:44:01.685Z,35.81
2022-07-31T08:44:27.649Z,35.66
2022-07-31T08:45:27.601Z,35.68
2022-07-31T08:46:27.558Z,36.15
2022-07-31T08:47:27.507Z,36.11
2022-07-31T08:48:27.449Z,36.18
2022-07-31T08:49:27.468Z,36.52
2022-07-31T08:50:27.417Z,36.48
2022-07-31T08:51:27.365Z,36.27
2022-07-31T08:52:27.250Z,35.93
2022-07-31T08:53:27.194Z,36.23
2022-07-31T08:54:27.165Z,35.49
2022-07-31T08:55:55.544Z,35.78
2022-07-31T08:56:27.053Z,35.56
2022-07-31T08:57:26.991Z,35.84
2022-07-31T08:58:26.940Z,36.19
2022-07-31T08:59:26.884Z,36.25
2022-07-31T09:00:26.833Z,35.68
2022-07-31T09:01:26.900Z,35.58
2022-07-31T09:02:26.728Z,35.89
2022-07-31T09:03:26.686Z,36.19
2022-07-31T09:04:26.639Z,36.48
2022-07-31T09:05:26.593Z,36.34
2022-07-31T09:06:26.528Z,36.28
2022-07-31T09:07:26.481Z,36.12
2022-07-31T09:08:26.446Z,36.37
2022-07-31T09:09:41.330Z,35.89
2022-07-31T09:10:26.330Z,35.64
2022-07-31T09:11:26.276Z,35.44
2022-07-31T09:12:33.167Z,35.37
2022-07-31T09:13:26.177Z,35.27
2022-07-31T09:14:26.138Z,35.58
2022-07-31T09:15:26.092Z,35.61
2022-07-31T09:16:30.758Z,35.92
2022-07-31T09:17:25.975Z,36.53
2022-07-31T09:18:25.924Z,36.77
2022-07-31T09:19:51.626Z,37.05
2022-07-31T09:20:25.826Z,36.79
2022-07-31T09:21:25.771Z,36.52
2022-07-31T09:22:25.731Z,36.23
2022-07-31T09:23:25.670Z,36.31
2022-07-31T09:24:25.623Z,36.55
2022-07-31T09:25:25.573Z,36.97
2022-07-31T09:26:25.535Z,36.94
2022-07-31T09:27:25.496Z,37.01
2022-07-31T09:28:25.427Z,37.15
2022-07-31T09:29:25.402Z,36.99
2022-07-31T09:30:25.352Z,36.69
2022-07-31T09:31:25.293Z,36.83
2022-07-31T09:32:25.222Z,36.71
2022-07-31T09:33:25.177Z,36.69
2022-07-31T09:34:25.117Z,36.71
2022-07-31T09:35:25.067Z,36.60
2022-07-31T09:36:25.019Z,36.53
2022-07-31T09:37:24.969Z,36.31
2022-07-31T09:38:24.933Z,36.21
2022-07-31T09:39:27.084Z,36.44
2022-07-31T09:40:24.819Z,36.64
2022-07-31T09:42:01.339Z,36.72
2022-07-31T09:42:24.719Z,36.87
2022-07-31T09:43:24.687Z,37.25
2022-07-31T09:44:26.079Z,37.34
2022-07-31T09:45:24.567Z,37.23
2022-07-31T09:46:24.526Z,37.34
2022-07-31T09:47:24.500Z,36.67
2022-07-31T09:48:26.580Z,36.18
2022-07-31T09:49:24.413Z,36.11
2022-07-31T09:50:24.330Z,36.37
2022-07-31T09:51:24.277Z,36.52
2022-07-31T09:52:24.260Z,35.61
2022-07-31T09:53:24.180Z,35.44
2022-07-31T09:54:24.125Z,35.54
2022-07-31T09:55:24.077Z,35.81
2022-07-31T09:56:24.030Z,35.58
2022-07-31T09:57:23.976Z,35.83
2022-07-31T09:58:23.931Z,36.08
2022-07-31T09:59:23.880Z,36.55
2022-07-31T10:00:23.825Z,36.38
2022-07-31T10:01:23.799Z,36.67
2022-07-31T10:02:23.735Z,36.69
2022-07-31T10:03:23.677Z,36.16
2022-07-31T10:04:23.628Z,35.64
2022-07-31T10:05:23.573Z,35.03
2022-07-31T10:06:23.527Z,34.80
2022-07-31T10:07:32.529Z,34.80
2022-07-31T10:08:23.440Z,34.73
2022-07-31T10:09:23.380Z,34.95
2022-07-31T10:10:23.328Z,35.03
2022-07-31T10:11:23.275Z,35.17
2022-07-31T10:12:23.221Z,35.29
2022-07-31T10:13:23.200Z,35.55
2022-07-31T10:14:23.123Z,35.91
2022-07-31T10:15:23.069Z,35.73
2022-07-31T10:16:23.020Z,35.37
2022-07-31T10:17:22.968Z,35.37
2022-07-31T10:18:36.099Z,35.49
2022-07-31T10:19:22.866Z,35.50
2022-07-31T10:20:22.836Z,35.59
2022-07-31T10:21:22.762Z,35.61
2022-07-31T10:22:22.720Z,35.66
2022-07-31T10:23:22.699Z,36.16
2022-07-31T10:24:27.762Z,35.92
2022-07-31T10:25:22.571Z,36.15
2022-07-31T10:26:34.289Z,36.48
2022-07-31T10:27:22.461Z,36.69
2022-07-31T10:28:22.407Z,36.93
2022-07-31T10:29:22.359Z,36.19
2022-07-31T10:30:27.365Z,36.27
2022-07-31T10:31:22.260Z,36.22
2022-07-31T10:32:22.207Z,35.99
2022-07-31T10:33:43.065Z,35.98
2022-07-31T10:34:22.105Z,35.81
2022-07-31T10:35:22.056Z,35.83
2022-07-31T10:36:22.006Z,35.87
2022-07-31T10:37:21.957Z,36.23
2022-07-31T10:38:21.905Z,36.37
2022-07-31T10:39:21.854Z,36.68
2022-07-31T10:40:21.803Z,36.97
2022-07-31T10:41:21.758Z,36.65
2022-07-31T10:42:21.701Z,36.30
2022-07-31T10:43:21.654Z,35.58
2022-07-31T10:44:21.601Z,35.58
2022-07-31T10:45:21.553Z,35.96
2022-07-31T10:46:21.499Z,36.05
2022-07-31T10:47:21.457Z,35.61
2022-07-31T10:48:21.397Z,35.49
2022-07-31T10:49:21.409Z,35.37
2022-07-31T10:50:21.301Z,35.49
2022-07-31T10:51:21.250Z,35.31
2022-07-31T10:52:21.196Z,35.49
2022-07-31T10:53:21.152Z,35.84
2022-07-31T10:54:21.094Z,35.74
2022-07-31T10:55:21.048Z,35.59
2022-07-31T10:56:20.993Z,35.18
2022-07-31T10:57:20.944Z,34.71
2022-07-31T10:58:20.895Z,34.69
2022-07-31T10:59:20.843Z,34.86
2022-07-31T11:00:20.791Z,34.75
2022-07-31T11:01:20.763Z,35.02
2022-07-31T11:02:20.691Z,34.73
2022-07-31T11:03:20.664Z,34.64
2022-07-31T11:04:20.591Z,33.81
2022-07-31T11:05:20.538Z,33.45
2022-07-31T11:06:20.487Z,33.97
2022-07-31T11:07:20.449Z,34.43
2022-07-31T11:08:20.385Z,34.71
2022-07-31T11:09:20.336Z,34.60
2022-07-31T11:10:20.285Z,35.03
2022-07-31T11:11:23.528Z,35.29
2022-07-31T11:12:20.184Z,35.56
2022-07-31T11:13:20.133Z,35.36
2022-07-31T11:14:20.081Z,35.47
2022-07-31T11:15:20.032Z,35.09
2022-07-31T11:16:19.983Z,34.98
2022-07-31T11:17:19.929Z,34.98
2022-07-31T11:18:24.370Z,34.34
2022-07-31T11:19:19.831Z,34.28
2022-07-31T11:20:19.775Z,33.70
2022-07-31T11:21:37.758Z,33.72
2022-07-31T11:22:31.421Z,33.97
2022-07-31T11:23:19.624Z,33.81
2022-07-31T11:24:19.572Z,32.90
2022-07-31T11:25:19.589Z,32.96
2022-07-31T11:26:19.476Z,32.96
2022-07-31T11:27:19.419Z,33.31
2022-07-31T11:28:19.380Z,33.66
2022-07-31T11:30:01.217Z,33.59
2022-07-31T11:30:19.265Z,33.74
2022-07-31T11:31:19.230Z,33.57
2022-07-31T11:32:24.763Z,33.41
2022-07-31T11:33:19.109Z,33.26
2022-07-31T11:34:19.063Z,33.29
2022-07-31T11:35:19.608Z,33.29
2022-07-31T11:36:18.957Z,33.55
2022-07-31T11:37:18.903Z,33.93
2022-07-31T11:38:18.853Z,34.24
2022-07-31T11:39:18.799Z,34.37
2022-07-31T11:40:18.795Z,34.55
2022-07-31T11:41:19.582Z,34.40
2022-07-31T11:42:18.676Z,34.16
2022-07-31T11:43:26.428Z,33.97
2022-07-31T11:44:18.584Z,33.49
2022-07-31T11:45:18.522Z,33.38
2022-07-31T11:46:18.494Z,33.26
2022-07-31T11:48:09.470Z,33.09
2022-07-31T11:48:19.274Z,33.12
2022-07-31T11:49:18.435Z,33.07
2022-07-31T11:50:18.318Z,33.07
2022-07-31T11:51:18.219Z,33.12
2022-07-31T11:52:31.293Z,32.98
2022-07-31T11:53:18.130Z,32.84
2022-07-31T11:54:18.134Z,32.56
2022-07-31T11:55:18.041Z,31.95
2022-07-31T11:56:17.950Z,31.94
2022-07-31T11:57:17.958Z,31.31
2022-07-31T11:58:17.864Z,31.37
2022-07-31T11:59:45.066Z,31.20
2022-07-31T12:00:26.834Z,31.20
2022-07-31T12:01:17.701Z,31.18
2022-07-31T12:02:17.707Z,31.31
2022-07-31T12:03:17.587Z,31.32
2022-07-31T12:04:17.585Z,31.35
2022-07-31T12:05:17.489Z,31.31
2022-07-31T12:06:17.430Z,31.30
2022-07-31T12:07:17.402Z,31.04
2022-07-31T12:08:17.311Z,30.98
2022-07-31T12:10:00.822Z,30.97
2022-07-31T12:10:17.213Z,30.98
2022-07-31T12:11:17.217Z,31.01
2022-07-31T12:12:17.122Z,31.30
2022-07-31T12:13:17.136Z,31.31
2022-07-31T12:14:17.134Z,31.50
2022-07-31T12:15:16.939Z,31.49
2022-07-31T12:16:16.877Z,31.46
2022-07-31T12:17:16.848Z,31.53
2022-07-31T12:18:16.790Z,31.47
2022-07-31T12:19:16.765Z,31.47
2022-07-31T12:20:34.262Z,31.47
2022-07-31T12:21:16.671Z,31.45
2022-07-31T12:22:16.573Z,31.04
2022-07-31T12:23:38.777Z,30.75
2022-07-31T12:24:16.484Z,30.76
2022-07-31T12:25:16.393Z,30.75
2022-07-31T12:26:16.439Z,30.44
2022-07-31T12:27:16.262Z,30.34
2022-07-31T12:28:16.200Z,30.28
2022-07-31T12:29:17.051Z,30.03
2022-07-31T12:30:16.089Z,29.97
2022-07-31T12:31:16.030Z,30.00
2022-07-31T12:32:15.983Z,29.64
2022-07-31T12:33:15.930Z,29.69
2022-07-31T12:34:15.864Z,29.45
2022-07-31T12:35:15.812Z,29.57
2022-07-31T12:36:15.781Z,29.47
2022-07-31T12:37:15.724Z,29.37
2022-07-31T12:38:37.738Z,29.25
2022-07-31T12:39:15.639Z,29.42
2022-07-31T12:40:15.548Z,29.48
2022-07-31T12:41:15.503Z,29.73
2022-07-31T12:42:15.447Z,29.86
2022-07-31T12:43:15.384Z,30.00
2022-07-31T12:44:15.319Z,30.07
2022-07-31T12:45:17.956Z,29.92
2022-07-31T12:46:15.217Z,30.10
2022-07-31T12:47:15.169Z,30.03
2022-07-31T12:48:15.099Z,30.04
2022-07-31T12:49:15.178Z,30.06
2022-07-31T12:50:15.048Z,30.08
2022-07-31T12:51:14.934Z,30.29
2022-07-31T12:52:14.906Z,30.37